sensor_id;sensor_type;location;lat;lon;timestamp;P1;durP1;ratioP1;P2;durP2;ratioP2
60243;SDS011;46106;51.468;5.814;2023-07-13T18:24:46;11.30;;;2.13;;
60243;SDS011;46106;51.468;5.814;2023-07-13T18:27:11;12.45;;;2.40;;
60243;SDS011;46106;51.468;5.814;2023-07-13T18:29:37;5.47;;;2.03;;
60243;SDS011;46106;51.468;5.814;2023-07-13T18:34:38;7.38;;;2.30;;
60243;SDS011;46106;51.468;5.814;2023-07-13T18:37:18;5.13;;;2.25;;
60243;SDS011;46106;51.468;5.814;2023-07-13T18:39:45;6.68;;;2.47;;
60243;SDS011;46106;51.468;5.814;2023-07-13T18:42:11;5.28;;;2.25;;
60243;SDS011;46106;51.468;5.814;2023-07-13T18:44:36;6.90;;;2.47;;
60243;SDS011;46106;51.468;5.814;2023-07-13T18:47:02;5.22;;;2.28;;
60243;SDS011;46106;51.468;5.814;2023-07-13T18:49:29;8.65;;;2.88;;
60243;SDS011;46106;51.468;5.814;2023-07-13T18:51:55;7.60;;;3.10;;
60243;SDS011;46106;51.468;5.814;2023-07-13T18:54:20;5.55;;;2.83;;
60243;SDS011;46106;51.468;5.814;2023-07-13T18:56:47;5.55;;;2.95;;
60243;SDS011;46106;51.468;5.814;2023-07-13T18:59:13;7.28;;;3.20;;
60243;SDS011;46106;51.468;5.814;2023-07-13T19:01:39;6.80;;;2.75;;
60243;SDS011;46106;51.468;5.814;2023-07-13T19:04:13;5.20;;;2.45;;
60243;SDS011;46106;51.468;5.814;2023-07-13T19:06:51;5.65;;;2.55;;
60243;SDS011;46106;51.468;5.814;2023-07-13T19:09:16;6.15;;;2.45;;
60243;SDS011;46106;51.468;5.814;2023-07-13T19:11:41;4.80;;;2.42;;
60243;SDS011;46106;51.468;5.814;2023-07-13T19:14:09;3.67;;;2.20;;
60243;SDS011;46106;51.468;5.814;2023-07-13T19:16:36;6.45;;;2.90;;
60243;SDS011;46106;51.468;5.814;2023-07-13T19:19:07;5.50;;;2.40;;
60243;SDS011;46106;51.468;5.814;2023-07-13T19:21:57;3.72;;;2.10;;
60243;SDS011;46106;51.468;5.814;2023-07-13T19:24:46;6.32;;;2.58;;
60243;SDS011;46106;51.468;5.814;2023-07-13T19:27:33;5.30;;;2.28;;
60243;SDS011;46106;51.468;5.814;2023-07-13T19:30:19;5.57;;;2.63;;
60243;SDS011;46106;51.468;5.814;2023-07-13T19:33:05;10.73;;;3.30;;
60243;SDS011;46106;51.468;5.814;2023-07-13T19:35:52;7.72;;;2.47;;
60243;SDS011;46106;51.468;5.814;2023-07-13T19:38:38;9.00;;;2.67;;
60243;SDS011;46106;51.468;5.814;2023-07-13T19:41:24;5.47;;;2.33;;
60243;SDS011;46106;51.468;5.814;2023-07-13T19:44:12;7.55;;;2.78;;
60243;SDS011;46106;51.468;5.814;2023-07-13T19:46:59;6.53;;;2.90;;
60243;SDS011;46106;51.468;5.814;2023-07-13T19:49:45;4.72;;;2.63;;
60243;SDS011;46106;51.468;5.814;2023-07-13T19:52:31;3.30;;;2.22;;
60243;SDS011;46106;51.468;5.814;2023-07-13T19:55:17;5.80;;;2.70;;
60243;SDS011;46106;51.468;5.814;2023-07-13T19:58:08;5.07;;;2.53;;
60243;SDS011;46106;51.468;5.814;2023-07-13T20:00:55;6.10;;;2.97;;
60243;SDS011;46106;51.468;5.814;2023-07-13T20:03:41;5.97;;;2.85;;
60243;SDS011;46106;51.468;5.814;2023-07-13T20:06:29;7.32;;;3.20;;
60243;SDS011;46106;51.468;5.814;2023-07-13T20:09:22;8.77;;;3.50;;
60243;SDS011;46106;51.468;5.814;2023-07-13T20:12:11;4.07;;;2.80;;
60243;SDS011;46106;51.468;5.814;2023-07-13T20:14:58;6.22;;;2.85;;
60243;SDS011;46106;51.468;5.814;2023-07-13T20:17:46;4.85;;;2.83;;
60243;SDS011;46106;51.468;5.814;2023-07-13T20:20:44;8.48;;;3.20;;
60243;SDS011;46106;51.468;5.814;2023-07-13T20:23:34;6.38;;;2.90;;
60243;SDS011;46106;51.468;5.814;2023-07-13T20:26:19;5.03;;;2.75;;
60243;SDS011;46106;51.468;5.814;2023-07-13T20:29:07;4.97;;;3.10;;
60243;SDS011;46106;51.468;5.814;2023-07-13T20:31:52;3.85;;;2.70;;
60243;SDS011;46106;51.468;5.814;2023-07-13T20:34:38;6.15;;;3.50;;
60243;SDS011;46106;51.468;5.814;2023-07-13T20:37:30;5.05;;;3.30;;
60243;SDS011;46106;51.468;5.814;2023-07-13T20:40:22;5.47;;;3.50;;
60243;SDS011;46106;51.468;5.814;2023-07-13T20:43:09;6.78;;;4.03;;
60243;SDS011;46106;51.468;5.814;2023-07-13T20:45:56;8.52;;;3.72;;
60243;SDS011;46106;51.468;5.814;2023-07-13T20:48:44;7.30;;;3.55;;
60243;SDS011;46106;51.468;5.814;2023-07-13T20:51:35;6.25;;;3.85;;
60243;SDS011;46106;51.468;5.814;2023-07-13T20:54:22;9.98;;;4.30;;
60243;SDS011;46106;51.468;5.814;2023-07-13T20:57:08;10.10;;;4.80;;
60243;SDS011;46106;51.468;5.814;2023-07-13T20:59:55;9.23;;;4.72;;
60243;SDS011;46106;51.468;5.814;2023-07-13T21:02:41;9.77;;;4.88;;
60243;SDS011;46106;51.468;5.814;2023-07-13T21:05:30;7.70;;;4.57;;
60243;SDS011;46106;51.468;5.814;2023-07-13T21:08:23;15.80;;;6.25;;
60243;SDS011;46106;51.468;5.814;2023-07-13T21:11:09;9.95;;;5.35;;
60243;SDS011;46106;51.468;5.814;2023-07-13T21:13:55;7.60;;;4.47;;
60243;SDS011;46106;51.468;5.814;2023-07-13T21:16:41;9.73;;;5.20;;
60243;SDS011;46106;51.468;5.814;2023-07-13T21:19:26;8.93;;;5.30;;
60243;SDS011;46106;51.468;5.814;2023-07-13T21:22:14;8.52;;;5.50;;
60243;SDS011;46106;51.468;5.814;2023-07-13T21:25:00;13.10;;;5.55;;
60243;SDS011;46106;51.468;5.814;2023-07-13T21:27:54;10.73;;;5.25;;
60243;SDS011;46106;51.468;5.814;2023-07-13T21:30:41;9.63;;;5.20;;
60243;SDS011;46106;51.468;5.814;2023-07-13T21:33:29;8.63;;;5.30;;
60243;SDS011;46106;51.468;5.814;2023-07-13T21:36:15;9.95;;;4.78;;
60243;SDS011;46106;51.468;5.814;2023-07-13T21:39:02;7.88;;;4.63;;
60243;SDS011;46106;51.468;5.814;2023-07-13T21:41:50;9.40;;;5.53;;
60243;SDS011;46106;51.468;5.814;2023-07-13T21:44:35;6.90;;;5.10;;
60243;SDS011;46106;51.468;5.814;2023-07-13T21:47:21;10.88;;;5.07;;
60243;SDS011;46106;51.468;5.814;2023-07-13T21:50:07;9.32;;;5.55;;
60243;SDS011;46106;51.468;5.814;2023-07-13T21:52:53;12.18;;;5.63;;
60243;SDS011;46106;51.468;5.814;2023-07-13T21:55:39;10.05;;;5.47;;
60243;SDS011;46106;51.468;5.814;2023-07-13T21:58:29;9.38;;;5.00;;
60243;SDS011;46106;51.468;5.814;2023-07-13T22:01:20;7.18;;;5.00;;
60243;SDS011;46106;51.468;5.814;2023-07-13T22:04:09;7.97;;;5.07;;
60243;SDS011;46106;51.468;5.814;2023-07-13T22:06:58;8.32;;;6.30;;
60243;SDS011;46106;51.468;5.814;2023-07-13T22:09:45;10.98;;;6.97;;
60243;SDS011;46106;51.468;5.814;2023-07-13T22:12:30;10.07;;;6.75;;
60243;SDS011;46106;51.468;5.814;2023-07-13T22:15:16;9.40;;;6.35;;
60243;SDS011;46106;51.468;5.814;2023-07-13T22:18:21;12.05;;;6.80;;
60243;SDS011;46106;51.468;5.814;2023-07-13T22:21:07;7.38;;;5.80;;
60243;SDS011;46106;51.468;5.814;2023-07-13T22:23:56;12.23;;;7.07;;
60243;SDS011;46106;51.468;5.814;2023-07-13T22:26:43;12.05;;;7.35;;
60243;SDS011;46106;51.468;5.814;2023-07-13T22:29:29;14.23;;;8.07;;
60243;SDS011;46106;51.468;5.814;2023-07-13T22:32:18;16.85;;;8.98;;
60243;SDS011;46106;51.468;5.814;2023-07-13T22:35:04;17.85;;;9.18;;
60243;SDS011;46106;51.468;5.814;2023-07-13T22:37:52;20.15;;;10.52;;
60243;SDS011;46106;51.468;5.814;2023-07-13T22:40:40;16.38;;;10.07;;
60243;SDS011;46106;51.468;5.814;2023-07-13T22:43:27;18.15;;;11.30;;
60243;SDS011;46106;51.468;5.814;2023-07-13T22:46:26;17.70;;;10.98;;
60243;SDS011;46106;51.468;5.814;2023-07-13T22:49:17;15.88;;;11.82;;
60243;SDS011;46106;51.468;5.814;2023-07-13T22:52:11;17.55;;;11.68;;
60243;SDS011;46106;51.468;5.814;2023-07-13T22:54:58;23.75;;;11.57;;
60243;SDS011;46106;51.468;5.814;2023-07-13T22:57:43;18.85;;;12.35;;
60243;SDS011;46106;51.468;5.814;2023-07-13T23:00:33;23.10;;;11.80;;
60243;SDS011;46106;51.468;5.814;2023-07-13T23:03:19;22.50;;;12.25;;
60243;SDS011;46106;51.468;5.814;2023-07-13T23:06:04;22.17;;;13.82;;
60243;SDS011;46106;51.468;5.814;2023-07-13T23:08:50;16.90;;;12.15;;
60243;SDS011;46106;51.468;5.814;2023-07-13T23:11:36;16.88;;;12.07;;
60243;SDS011;46106;51.468;5.814;2023-07-13T23:14:22;20.83;;;12.70;;
60243;SDS011;46106;51.468;5.814;2023-07-13T23:17:11;22.13;;;12.93;;
60243;SDS011;46106;51.468;5.814;2023-07-13T23:19:57;21.35;;;13.10;;
60243;SDS011;46106;51.468;5.814;2023-07-13T23:22:43;22.63;;;12.68;;
60243;SDS011;46106;51.468;5.814;2023-07-13T23:25:29;18.55;;;13.07;;
60243;SDS011;46106;51.468;5.814;2023-07-13T23:28:20;21.05;;;13.43;;
60243;SDS011;46106;51.468;5.814;2023-07-13T23:31:07;18.73;;;12.98;;
60243;SDS011;46106;51.468;5.814;2023-07-13T23:33:57;23.98;;;14.65;;
60243;SDS011;46106;51.468;5.814;2023-07-13T23:36:44;20.30;;;13.15;;
60243;SDS011;46106;51.468;5.814;2023-07-13T23:39:30;17.55;;;12.55;;
60243;SDS011;46106;51.468;5.814;2023-07-13T23:42:16;24.38;;;13.80;;
60243;SDS011;46106;51.468;5.814;2023-07-13T23:45:02;20.77;;;13.25;;
60243;SDS011;46106;51.468;5.814;2023-07-13T23:47:48;22.23;;;14.23;;
60243;SDS011;46106;51.468;5.814;2023-07-13T23:50:36;21.27;;;14.55;;
60243;SDS011;46106;51.468;5.814;2023-07-13T23:53:23;23.67;;;15.15;;
60243;SDS011;46106;51.468;5.814;2023-07-13T23:56:19;24.60;;;15.18;;
60243;SDS011;46106;51.468;5.814;2023-07-13T23:59:06;27.42;;;15.57;;
